sensor_id;sensor_type;location;lat;lon;timestamp;P1;durP1;ratioP1;P2;durP2;ratioP2
47912;SDS011;33676;51.006;17.180;2022-10-16T00:01:45;5.40;;;4.90;;
47912;SDS011;33676;51.006;17.180;2022-10-16T00:04:14;6.10;;;5.50;;
47912;SDS011;33676;51.006;17.180;2022-10-16T00:06:42;5.10;;;4.70;;
47912;SDS011;33676;51.006;17.180;2022-10-16T00:09:10;5.30;;;4.80;;
47912;SDS011;33676;51.006;17.180;2022-10-16T00:11:39;5.90;;;4.70;;
47912;SDS011;33676;51.006;17.180;2022-10-16T00:14:13;4.90;;;4.50;;
47912;SDS011;33676;51.006;17.180;2022-10-16T00:16:42;5.40;;;4.90;;
47912;SDS011;33676;51.006;17.180;2022-10-16T00:19:11;5.10;;;4.60;;
47912;SDS011;33676;51.006;17.180;2022-10-16T00:21:40;5.40;;;4.90;;
47912;SDS011;33676;51.006;17.180;2022-10-16T00:24:09;5.10;;;4.60;;
47912;SDS011;33676;51.006;17.180;2022-10-16T00:26:39;5.20;;;4.80;;
47912;SDS011;33676;51.006;17.180;2022-10-16T00:29:08;7.50;;;4.10;;
47912;SDS011;33676;51.006;17.180;2022-10-16T00:31:37;4.50;;;4.00;;
47912;SDS011;33676;51.006;17.180;2022-10-16T00:34:05;4.70;;;4.40;;
47912;SDS011;33676;51.006;17.180;2022-10-16T00:36:33;4.30;;;3.90;;
47912;SDS011;33676;51.006;17.180;2022-10-16T00:39:02;4.90;;;4.50;;
47912;SDS011;33676;51.006;17.180;2022-10-16T00:41:31;4.80;;;4.40;;
47912;SDS011;33676;51.006;17.180;2022-10-16T00:44:03;4.50;;;3.90;;
47912;SDS011;33676;51.006;17.180;2022-10-16T00:46:52;4.20;;;3.90;;
47912;SDS011;33676;51.006;17.180;2022-10-16T00:49:20;4.00;;;3.70;;
47912;SDS011;33676;51.006;17.180;2022-10-16T00:51:50;4.50;;;4.10;;
47912;SDS011;33676;51.006;17.180;2022-10-16T00:54:27;4.10;;;3.80;;
47912;SDS011;33676;51.006;17.180;2022-10-16T00:57:00;4.40;;;3.90;;
47912;SDS011;33676;51.006;17.180;2022-10-16T00:59:39;4.60;;;4.30;;
47912;SDS011;33676;51.006;17.180;2022-10-16T01:02:12;4.60;;;4.00;;
47912;SDS011;33676;51.006;17.180;2022-10-16T01:04:50;5.20;;;4.30;;
47912;SDS011;33676;51.006;17.180;2022-10-16T01:10:48;4.40;;;4.00;;
47912;SDS011;33676;51.006;17.180;2022-10-16T01:13:27;8.30;;;3.70;;
47912;SDS011;33676;51.006;17.180;2022-10-16T01:16:07;5.00;;;4.70;;
47912;SDS011;33676;51.006;17.180;2022-10-16T01:21:31;5.70;;;4.00;;
47912;SDS011;33676;51.006;17.180;2022-10-16T01:24:06;5.20;;;4.70;;
47912;SDS011;33676;51.006;17.180;2022-10-16T01:27:01;6.10;;;4.60;;
47912;SDS011;33676;51.006;17.180;2022-10-16T01:30:07;5.80;;;5.20;;
47912;SDS011;33676;51.006;17.180;2022-10-16T01:32:55;6.70;;;5.60;;
47912;SDS011;33676;51.006;17.180;2022-10-16T01:35:45;6.70;;;5.40;;
47912;SDS011;33676;51.006;17.180;2022-10-16T01:38:30;5.10;;;4.70;;
47912;SDS011;33676;51.006;17.180;2022-10-16T01:41:12;5.00;;;4.60;;
47912;SDS011;33676;51.006;17.180;2022-10-16T01:43:48;5.20;;;4.70;;
47912;SDS011;33676;51.006;17.180;2022-10-16T01:46:24;5.50;;;5.00;;
47912;SDS011;33676;51.006;17.180;2022-10-16T01:48:54;5.40;;;5.00;;
47912;SDS011;33676;51.006;17.180;2022-10-16T01:51:23;4.40;;;4.10;;
47912;SDS011;33676;51.006;17.180;2022-10-16T01:53:54;5.30;;;5.00;;
47912;SDS011;33676;51.006;17.180;2022-10-16T01:56:26;7.10;;;5.50;;
47912;SDS011;33676;51.006;17.180;2022-10-16T01:59:03;5.80;;;5.30;;
47912;SDS011;33676;51.006;17.180;2022-10-16T02:01:36;5.20;;;4.70;;
47912;SDS011;33676;51.006;17.180;2022-10-16T02:04:15;5.50;;;5.00;;
47912;SDS011;33676;51.006;17.180;2022-10-16T02:07:05;5.60;;;5.20;;
47912;SDS011;33676;51.006;17.180;2022-10-16T02:09:34;6.30;;;5.70;;
47912;SDS011;33676;51.006;17.180;2022-10-16T02:12:27;4.70;;;4.40;;
47912;SDS011;33676;51.006;17.180;2022-10-16T02:14:58;5.50;;;5.10;;
47912;SDS011;33676;51.006;17.180;2022-10-16T02:17:28;4.90;;;4.30;;
47912;SDS011;33676;51.006;17.180;2022-10-16T02:19:56;7.30;;;6.60;;
47912;SDS011;33676;51.006;17.180;2022-10-16T02:22:32;7.40;;;5.30;;
47912;SDS011;33676;51.006;17.180;2022-10-16T02:30:25;6.10;;;5.60;;
47912;SDS011;33676;51.006;17.180;2022-10-16T02:33:09;5.40;;;5.00;;
47912;SDS011;33676;51.006;17.180;2022-10-16T02:35:41;7.30;;;6.60;;
47912;SDS011;33676;51.006;17.180;2022-10-16T02:38:14;6.20;;;5.70;;
47912;SDS011;33676;51.006;17.180;2022-10-16T02:40:44;6.60;;;6.10;;
47912;SDS011;33676;51.006;17.180;2022-10-16T02:43:12;6.60;;;6.10;;
47912;SDS011;33676;51.006;17.180;2022-10-16T02:45:41;5.60;;;5.20;;
47912;SDS011;33676;51.006;17.180;2022-10-16T02:48:09;7.00;;;5.30;;
47912;SDS011;33676;51.006;17.180;2022-10-16T02:50:37;6.40;;;5.80;;
47912;SDS011;33676;51.006;17.180;2022-10-16T02:53:06;5.80;;;5.30;;
47912;SDS011;33676;51.006;17.180;2022-10-16T02:55:34;6.20;;;5.70;;
47912;SDS011;33676;51.006;17.180;2022-10-16T02:58:04;6.20;;;5.60;;
47912;SDS011;33676;51.006;17.180;2022-10-16T03:00:33;6.60;;;6.00;;
47912;SDS011;33676;51.006;17.180;2022-10-16T03:03:01;6.00;;;5.50;;
47912;SDS011;33676;51.006;17.180;2022-10-16T03:05:29;6.80;;;6.10;;
47912;SDS011;33676;51.006;17.180;2022-10-16T03:07:58;6.50;;;5.90;;
47912;SDS011;33676;51.006;17.180;2022-10-16T03:10:28;5.10;;;4.80;;
47912;SDS011;33676;51.006;17.180;2022-10-16T03:12:56;6.20;;;5.70;;
47912;SDS011;33676;51.006;17.180;2022-10-16T03:15:25;6.30;;;5.80;;
47912;SDS011;33676;51.006;17.180;2022-10-16T03:17:54;6.00;;;5.50;;
47912;SDS011;33676;51.006;17.180;2022-10-16T03:20:22;6.10;;;5.60;;
47912;SDS011;33676;51.006;17.180;2022-10-16T03:22:50;5.80;;;5.30;;
47912;SDS011;33676;51.006;17.180;2022-10-16T03:25:19;5.80;;;5.40;;
47912;SDS011;33676;51.006;17.180;2022-10-16T03:27:47;7.80;;;7.20;;
47912;SDS011;33676;51.006;17.180;2022-10-16T03:30:15;6.50;;;5.80;;
47912;SDS011;33676;51.006;17.180;2022-10-16T03:32:44;6.00;;;5.50;;
47912;SDS011;33676;51.006;17.180;2022-10-16T03:35:13;6.10;;;5.60;;
47912;SDS011;33676;51.006;17.180;2022-10-16T03:37:41;6.40;;;5.80;;
47912;SDS011;33676;51.006;17.180;2022-10-16T03:40:10;5.90;;;5.50;;
47912;SDS011;33676;51.006;17.180;2022-10-16T03:42:38;6.60;;;5.70;;
47912;SDS011;33676;51.006;17.180;2022-10-16T03:45:06;6.60;;;6.10;;
47912;SDS011;33676;51.006;17.180;2022-10-16T03:47:35;5.50;;;5.00;;
47912;SDS011;33676;51.006;17.180;2022-10-16T03:50:04;6.20;;;5.70;;
47912;SDS011;33676;51.006;17.180;2022-10-16T03:52:33;7.00;;;6.00;;
47912;SDS011;33676;51.006;17.180;2022-10-16T03:55:03;6.40;;;5.80;;
47912;SDS011;33676;51.006;17.180;2022-10-16T03:57:31;7.70;;;6.60;;
47912;SDS011;33676;51.006;17.180;2022-10-16T04:00:00;6.60;;;6.10;;
47912;SDS011;33676;51.006;17.180;2022-10-16T04:02:28;5.50;;;5.10;;
47912;SDS011;33676;51.006;17.180;2022-10-16T04:04:56;6.90;;;6.30;;
47912;SDS011;33676;51.006;17.180;2022-10-16T04:07:24;6.70;;;6.20;;
47912;SDS011;33676;51.006;17.180;2022-10-16T04:09:53;6.60;;;6.00;;
47912;SDS011;33676;51.006;17.180;2022-10-16T04:12:21;6.50;;;6.00;;
47912;SDS011;33676;51.006;17.180;2022-10-16T04:14:49;6.10;;;5.60;;
47912;SDS011;33676;51.006;17.180;2022-10-16T04:17:18;6.90;;;6.40;;
47912;SDS011;33676;51.006;17.180;2022-10-16T04:19:46;5.90;;;5.50;;
47912;SDS011;33676;51.006;17.180;2022-10-16T04:22:14;5.40;;;5.00;;
47912;SDS011;33676;51.006;17.180;2022-10-16T04:24:43;5.60;;;5.20;;
47912;SDS011;33676;51.006;17.180;2022-10-16T04:27:11;6.00;;;5.50;;
47912;SDS011;33676;51.006;17.180;2022-10-16T04:29:39;6.20;;;5.70;;
47912;SDS011;33676;51.006;17.180;2022-10-16T04:32:08;5.80;;;5.30;;
47912;SDS011;33676;51.006;17.180;2022-10-16T04:34:39;5.90;;;5.40;;
47912;SDS011;33676;51.006;17.180;2022-10-16T04:37:08;6.60;;;5.80;;
47912;SDS011;33676;51.006;17.180;2022-10-16T04:39:36;5.80;;;5.30;;
47912;SDS011;33676;51.006;17.180;2022-10-16T04:42:04;6.30;;;5.80;;
47912;SDS011;33676;51.006;17.180;2022-10-16T04:44:32;7.20;;;6.50;;
47912;SDS011;33676;51.006;17.180;2022-10-16T04:47:01;6.90;;;6.20;;
47912;SDS011;33676;51.006;17.180;2022-10-16T04:49:29;6.10;;;5.60;;
47912;SDS011;33676;51.006;17.180;2022-10-16T04:51:57;6.70;;;5.60;;
47912;SDS011;33676;51.006;17.180;2022-10-16T04:54:25;5.50;;;5.10;;
47912;SDS011;33676;51.006;17.180;2022-10-16T04:56:54;8.90;;;6.20;;
47912;SDS011;33676;51.006;17.180;2022-10-16T04:59:22;5.90;;;5.50;;
47912;SDS011;33676;51.006;17.180;2022-10-16T05:01:51;7.90;;;7.20;;
47912;SDS011;33676;51.006;17.180;2022-10-16T05:04:19;9.00;;;8.20;;
47912;SDS011;33676;51.006;17.180;2022-10-16T05:06:47;8.50;;;7.70;;
47912;SDS011;33676;51.006;17.180;2022-10-16T05:09:16;14.30;;;8.20;;
47912;SDS011;33676;51.006;17.180;2022-10-16T05:11:44;8.80;;;8.00;;
47912;SDS011;33676;51.006;17.180;2022-10-16T05:14:12;8.50;;;7.70;;
47912;SDS011;33676;51.006;17.180;2022-10-16T05:16:41;8.50;;;7.80;;
47912;SDS011;33676;51.006;17.180;2022-10-16T05:19:09;8.10;;;7.30;;
47912;SDS011;33676;51.006;17.180;2022-10-16T05:21:55;9.50;;;7.70;;
47912;SDS011;33676;51.006;17.180;2022-10-16T05:24:23;8.00;;;7.20;;
47912;SDS011;33676;51.006;17.180;2022-10-16T05:26:52;11.80;;;7.90;;
47912;SDS011;33676;51.006;17.180;2022-10-16T05:29:20;7.60;;;7.00;;
47912;SDS011;33676;51.006;17.180;2022-10-16T05:31:52;7.40;;;6.70;;
47912;SDS011;33676;51.006;17.180;2022-10-16T05:34:21;8.10;;;7.40;;
47912;SDS011;33676;51.006;17.180;2022-10-16T05:36:49;7.50;;;6.80;;
47912;SDS011;33676;51.006;17.180;2022-10-16T05:39:18;7.70;;;6.60;;
47912;SDS011;33676;51.006;17.180;2022-10-16T05:41:46;14.00;;;6.80;;
47912;SDS011;33676;51.006;17.180;2022-10-16T05:44:17;6.60;;;6.10;;
47912;SDS011;33676;51.006;17.180;2022-10-16T05:46:46;6.90;;;6.30;;
47912;SDS011;33676;51.006;17.180;2022-10-16T05:49:15;6.70;;;6.10;;
47912;SDS011;33676;51.006;17.180;2022-10-16T05:51:43;6.40;;;5.80;;
47912;SDS011;33676;51.006;17.180;2022-10-16T05:54:12;6.60;;;6.00;;
47912;SDS011;33676;51.006;17.180;2022-10-16T05:56:40;6.80;;;6.20;;
47912;SDS011;33676;51.006;17.180;2022-10-16T05:59:09;5.70;;;5.20;;
47912;SDS011;33676;51.006;17.180;2022-10-16T06:01:37;6.20;;;5.80;;
47912;SDS011;33676;51.006;17.180;2022-10-16T06:04:14;5.50;;;5.10;;
47912;SDS011;33676;51.006;17.180;2022-10-16T06:06:43;5.70;;;5.20;;
47912;SDS011;33676;51.006;17.180;2022-10-16T06:09:12;5.60;;;5.10;;
47912;SDS011;33676;51.006;17.180;2022-10-16T06:11:40;6.30;;;5.80;;
47912;SDS011;33676;51.006;17.180;2022-10-16T06:14:08;8.30;;;6.70;;
47912;SDS011;33676;51.006;17.180;2022-10-16T06:16:38;6.90;;;6.30;;
47912;SDS011;33676;51.006;17.180;2022-10-16T06:19:06;7.40;;;6.90;;
47912;SDS011;33676;51.006;17.180;2022-10-16T06:21:36;7.50;;;6.80;;
47912;SDS011;33676;51.006;17.180;2022-10-16T06:24:04;5.90;;;5.50;;
47912;SDS011;33676;51.006;17.180;2022-10-16T06:26:32;6.50;;;6.00;;
47912;SDS011;33676;51.006;17.180;2022-10-16T06:29:01;7.70;;;5.80;;
47912;SDS011;33676;51.006;17.180;2022-10-16T06:31:32;6.80;;;6.20;;
47912;SDS011;33676;51.006;17.180;2022-10-16T06:34:04;6.80;;;6.30;;
47912;SDS011;33676;51.006;17.180;2022-10-16T06:36:39;10.50;;;8.60;;
47912;SDS011;33676;51.006;17.180;2022-10-16T06:39:11;5.30;;;4.90;;
47912;SDS011;33676;51.006;17.180;2022-10-16T06:41:42;6.20;;;5.80;;
47912;SDS011;33676;51.006;17.180;2022-10-16T06:44:10;8.20;;;7.50;;
47912;SDS011;33676;51.006;17.180;2022-10-16T06:46:38;6.70;;;5.60;;
47912;SDS011;33676;51.006;17.180;2022-10-16T06:49:07;4.70;;;4.40;;
47912;SDS011;33676;51.006;17.180;2022-10-16T06:51:35;5.20;;;4.80;;
47912;SDS011;33676;51.006;17.180;2022-10-16T06:54:10;5.20;;;4.80;;
47912;SDS011;33676;51.006;17.180;2022-10-16T06:56:38;4.80;;;4.50;;
47912;SDS011;33676;51.006;17.180;2022-10-16T06:59:06;5.20;;;4.80;;
47912;SDS011;33676;51.006;17.180;2022-10-16T07:01:35;5.00;;;4.60;;
47912;SDS011;33676;51.006;17.180;2022-10-16T07:04:03;5.20;;;4.70;;
47912;SDS011;33676;51.006;17.180;2022-10-16T07:06:33;4.80;;;4.40;;
47912;SDS011;33676;51.006;17.180;2022-10-16T07:09:04;4.20;;;4.00;;
47912;SDS011;33676;51.006;17.180;2022-10-16T07:11:36;4.70;;;4.40;;
47912;SDS011;33676;51.006;17.180;2022-10-16T07:14:15;5.40;;;4.90;;
47912;SDS011;33676;51.006;17.180;2022-10-16T07:16:44;5.20;;;4.70;;
47912;SDS011;33676;51.006;17.180;2022-10-16T07:19:13;5.00;;;4.70;;
47912;SDS011;33676;51.006;17.180;2022-10-16T07:21:43;4.90;;;4.60;;
47912;SDS011;33676;51.006;17.180;2022-10-16T07:24:16;5.20;;;4.90;;
47912;SDS011;33676;51.006;17.180;2022-10-16T07:26:45;4.60;;;4.30;;
47912;SDS011;33676;51.006;17.180;2022-10-16T07:29:23;5.00;;;4.60;;
47912;SDS011;33676;51.006;17.180;2022-10-16T07:31:51;4.60;;;4.30;;
47912;SDS011;33676;51.006;17.180;2022-10-16T07:34:20;4.50;;;4.10;;
47912;SDS011;33676;51.006;17.180;2022-10-16T07:36:50;4.70;;;4.30;;
47912;SDS011;33676;51.006;17.180;2022-10-16T07:39:18;4.70;;;4.30;;
47912;SDS011;33676;51.006;17.180;2022-10-16T07:41:47;4.10;;;3.70;;
47912;SDS011;33676;51.006;17.180;2022-10-16T07:44:15;5.20;;;4.80;;
47912;SDS011;33676;51.006;17.180;2022-10-16T07:46:44;5.60;;;5.20;;
47912;SDS011;33676;51.006;17.180;2022-10-16T07:49:12;5.40;;;4.90;;
47912;SDS011;33676;51.006;17.180;2022-10-16T07:51:40;5.40;;;4.90;;
47912;SDS011;33676;51.006;17.180;2022-10-16T07:54:09;4.40;;;4.10;;
47912;SDS011;33676;51.006;17.180;2022-10-16T07:56:38;4.10;;;3.80;;
47912;SDS011;33676;51.006;17.180;2022-10-16T07:59:10;4.90;;;4.50;;
47912;SDS011;33676;51.006;17.180;2022-10-16T08:01:39;5.20;;;4.80;;
47912;SDS011;33676;51.006;17.180;2022-10-16T08:04:08;5.80;;;5.40;;
47912;SDS011;33676;51.006;17.180;2022-10-16T08:06:38;5.50;;;5.10;;
47912;SDS011;33676;51.006;17.180;2022-10-16T08:09:08;5.20;;;4.70;;
47912;SDS011;33676;51.006;17.180;2022-10-16T08:11:37;4.30;;;3.90;;
47912;SDS011;33676;51.006;17.180;2022-10-16T08:14:05;4.10;;;3.80;;
47912;SDS011;33676;51.006;17.180;2022-10-16T08:16:33;3.50;;;3.30;;
47912;SDS011;33676;51.006;17.180;2022-10-16T08:19:02;4.30;;;4.00;;
47912;SDS011;33676;51.006;17.180;2022-10-16T08:21:30;4.50;;;4.20;;
47912;SDS011;33676;51.006;17.180;2022-10-16T08:23:59;4.30;;;4.00;;
47912;SDS011;33676;51.006;17.180;2022-10-16T08:26:28;3.20;;;3.00;;
47912;SDS011;33676;51.006;17.180;2022-10-16T08:28:56;4.10;;;3.80;;
47912;SDS011;33676;51.006;17.180;2022-10-16T08:31:24;3.80;;;3.60;;
47912;SDS011;33676;51.006;17.180;2022-10-16T08:33:54;4.20;;;3.80;;
47912;SDS011;33676;51.006;17.180;2022-10-16T08:36:22;4.10;;;3.80;;
47912;SDS011;33676;51.006;17.180;2022-10-16T08:38:51;5.50;;;5.10;;
47912;SDS011;33676;51.006;17.180;2022-10-16T08:48:03;6.30;;;5.60;;
47912;SDS011;33676;51.006;17.180;2022-10-16T08:50:38;6.10;;;5.60;;
47912;SDS011;33676;51.006;17.180;2022-10-16T08:53:14;5.30;;;4.90;;
47912;SDS011;33676;51.006;17.180;2022-10-16T08:55:50;4.40;;;4.10;;
47912;SDS011;33676;51.006;17.180;2022-10-16T08:58:21;5.70;;;5.20;;
47912;SDS011;33676;51.006;17.180;2022-10-16T09:00:55;5.10;;;4.40;;
47912;SDS011;33676;51.006;17.180;2022-10-16T09:09:07;4.90;;;4.40;;
47912;SDS011;33676;51.006;17.180;2022-10-16T09:12:22;6.30;;;4.80;;
47912;SDS011;33676;51.006;17.180;2022-10-16T09:15:24;5.10;;;4.70;;
47912;SDS011;33676;51.006;17.180;2022-10-16T09:18:05;4.90;;;4.50;;
47912;SDS011;33676;51.006;17.180;2022-10-16T09:20:51;4.90;;;4.50;;
47912;SDS011;33676;51.006;17.180;2022-10-16T09:23:27;4.80;;;4.40;;
47912;SDS011;33676;51.006;17.180;2022-10-16T09:25:58;6.30;;;5.70;;
47912;SDS011;33676;51.006;17.180;2022-10-16T09:28:27;5.40;;;4.60;;
47912;SDS011;33676;51.006;17.180;2022-10-16T09:30:55;4.70;;;4.40;;
47912;SDS011;33676;51.006;17.180;2022-10-16T09:33:27;3.60;;;3.40;;
47912;SDS011;33676;51.006;17.180;2022-10-16T09:35:58;4.30;;;4.00;;
47912;SDS011;33676;51.006;17.180;2022-10-16T09:38:29;4.80;;;4.50;;
47912;SDS011;33676;51.006;17.180;2022-10-16T09:41:00;4.80;;;4.40;;
47912;SDS011;33676;51.006;17.180;2022-10-16T09:43:36;5.00;;;4.20;;
47912;SDS011;33676;51.006;17.180;2022-10-16T09:49:04;4.90;;;4.60;;
47912;SDS011;33676;51.006;17.180;2022-10-16T09:51:44;4.30;;;4.00;;
47912;SDS011;33676;51.006;17.180;2022-10-16T09:54:15;4.50;;;4.10;;
47912;SDS011;33676;51.006;17.180;2022-10-16T09:56:48;3.80;;;3.50;;
47912;SDS011;33676;51.006;17.180;2022-10-16T09:59:22;3.40;;;3.20;;
47912;SDS011;33676;51.006;17.180;2022-10-16T10:01:55;3.70;;;3.50;;
47912;SDS011;33676;51.006;17.180;2022-10-16T10:04:36;3.00;;;2.90;;
47912;SDS011;33676;51.006;17.180;2022-10-16T10:07:07;2.40;;;2.30;;
47912;SDS011;33676;51.006;17.180;2022-10-16T10:09:46;3.00;;;2.80;;
47912;SDS011;33676;51.006;17.180;2022-10-16T10:12:25;3.00;;;2.80;;
47912;SDS011;33676;51.006;17.180;2022-10-16T10:14:56;5.30;;;2.90;;
47912;SDS011;33676;51.006;17.180;2022-10-16T10:17:54;2.70;;;2.50;;
47912;SDS011;33676;51.006;17.180;2022-10-16T10:23:23;2.40;;;2.20;;
47912;SDS011;33676;51.006;17.180;2022-10-16T10:25:59;2.20;;;2.10;;
47912;SDS011;33676;51.006;17.180;2022-10-16T10:29:15;2.60;;;2.10;;
47912;SDS011;33676;51.006;17.180;2022-10-16T10:32:19;1.70;;;1.60;;
47912;SDS011;33676;51.006;17.180;2022-10-16T10:35:21;1.80;;;1.70;;
47912;SDS011;33676;51.006;17.180;2022-10-16T10:41:07;2.40;;;2.00;;
47912;SDS011;33676;51.006;17.180;2022-10-16T11:01:08;1.60;;;1.50;;
47912;SDS011;33676;51.006;17.180;2022-10-16T11:06:57;2.80;;;2.60;;
47912;SDS011;33676;51.006;17.180;2022-10-16T11:09:38;4.60;;;3.30;;
47912;SDS011;33676;51.006;17.180;2022-10-16T11:15:32;3.30;;;3.00;;
47912;SDS011;33676;51.006;17.180;2022-10-16T11:18:19;3.00;;;2.90;;
47912;SDS011;33676;51.006;17.180;2022-10-16T11:20:53;3.00;;;2.80;;
47912;SDS011;33676;51.006;17.180;2022-10-16T11:23:28;2.90;;;2.70;;
47912;SDS011;33676;51.006;17.180;2022-10-16T11:26:21;4.30;;;4.00;;
47912;SDS011;33676;51.006;17.180;2022-10-16T11:28:54;4.20;;;3.80;;
47912;SDS011;33676;51.006;17.180;2022-10-16T11:31:32;4.90;;;3.80;;
47912;SDS011;33676;51.006;17.180;2022-10-16T11:34:12;4.30;;;4.00;;
47912;SDS011;33676;51.006;17.180;2022-10-16T11:37:12;4.50;;;4.10;;
47912;SDS011;33676;51.006;17.180;2022-10-16T11:39:46;4.60;;;4.30;;
47912;SDS011;33676;51.006;17.180;2022-10-16T11:42:26;4.90;;;4.60;;
47912;SDS011;33676;51.006;17.180;2022-10-16T11:45:11;4.50;;;3.80;;
47912;SDS011;33676;51.006;17.180;2022-10-16T11:50:50;4.90;;;4.60;;
47912;SDS011;33676;51.006;17.180;2022-10-16T11:53:53;5.30;;;5.00;;
47912;SDS011;33676;51.006;17.180;2022-10-16T11:56:28;5.00;;;4.50;;
47912;SDS011;33676;51.006;17.180;2022-10-16T11:59:02;4.50;;;4.10;;
47912;SDS011;33676;51.006;17.180;2022-10-16T12:07:24;4.00;;;3.70;;
47912;SDS011;33676;51.006;17.180;2022-10-16T12:10:11;4.00;;;3.80;;
47912;SDS011;33676;51.006;17.180;2022-10-16T12:12:55;4.00;;;3.80;;
47912;SDS011;33676;51.006;17.180;2022-10-16T12:15:30;7.00;;;4.80;;
47912;SDS011;33676;51.006;17.180;2022-10-16T12:18:23;4.20;;;4.00;;
47912;SDS011;33676;51.006;17.180;2022-10-16T12:20:58;4.70;;;4.40;;
47912;SDS011;33676;51.006;17.180;2022-10-16T12:23:38;5.80;;;5.30;;
47912;SDS011;33676;51.006;17.180;2022-10-16T12:26:30;5.30;;;4.90;;
47912;SDS011;33676;51.006;17.180;2022-10-16T12:29:22;5.70;;;5.10;;
47912;SDS011;33676;51.006;17.180;2022-10-16T12:31:57;8.30;;;7.20;;
47912;SDS011;33676;51.006;17.180;2022-10-16T12:34:28;8.00;;;7.40;;
47912;SDS011;33676;51.006;17.180;2022-10-16T12:39:48;7.50;;;7.00;;
47912;SDS011;33676;51.006;17.180;2022-10-16T12:42:32;7.30;;;6.80;;
47912;SDS011;33676;51.006;17.180;2022-10-16T12:48:17;13.20;;;11.80;;
47912;SDS011;33676;51.006;17.180;2022-10-16T12:50:47;8.40;;;7.70;;
47912;SDS011;33676;51.006;17.180;2022-10-16T12:53:24;8.50;;;7.70;;
47912;SDS011;33676;51.006;17.180;2022-10-16T12:56:15;7.50;;;6.90;;
47912;SDS011;33676;51.006;17.180;2022-10-16T12:59:09;7.80;;;7.10;;
47912;SDS011;33676;51.006;17.180;2022-10-16T13:02:09;7.90;;;7.30;;
47912;SDS011;33676;51.006;17.180;2022-10-16T13:22:21;7.70;;;6.90;;
47912;SDS011;33676;51.006;17.180;2022-10-16T13:28:09;11.80;;;10.90;;
47912;SDS011;33676;51.006;17.180;2022-10-16T13:30:43;7.60;;;6.70;;
47912;SDS011;33676;51.006;17.180;2022-10-16T13:33:32;7.40;;;6.80;;
47912;SDS011;33676;51.006;17.180;2022-10-16T13:36:04;7.80;;;7.10;;
47912;SDS011;33676;51.006;17.180;2022-10-16T13:38:35;8.30;;;7.70;;
47912;SDS011;33676;51.006;17.180;2022-10-16T13:41:06;8.20;;;7.50;;
47912;SDS011;33676;51.006;17.180;2022-10-16T13:43:45;6.90;;;6.30;;
47912;SDS011;33676;51.006;17.180;2022-10-16T13:46:23;6.50;;;6.00;;
47912;SDS011;33676;51.006;17.180;2022-10-16T13:49:02;6.40;;;5.90;;
47912;SDS011;33676;51.006;17.180;2022-10-16T13:51:33;7.80;;;7.20;;
47912;SDS011;33676;51.006;17.180;2022-10-16T13:54:02;7.00;;;6.50;;
47912;SDS011;33676;51.006;17.180;2022-10-16T13:56:32;6.30;;;5.80;;
47912;SDS011;33676;51.006;17.180;2022-10-16T13:59:05;7.40;;;6.70;;
47912;SDS011;33676;51.006;17.180;2022-10-16T14:01:42;5.90;;;5.40;;
47912;SDS011;33676;51.006;17.180;2022-10-16T14:04:12;6.50;;;6.00;;
47912;SDS011;33676;51.006;17.180;2022-10-16T14:06:44;6.50;;;5.90;;
47912;SDS011;33676;51.006;17.180;2022-10-16T14:09:30;5.50;;;5.00;;
47912;SDS011;33676;51.006;17.180;2022-10-16T14:12:01;6.00;;;5.60;;
47912;SDS011;33676;51.006;17.180;2022-10-16T14:14:52;5.90;;;5.40;;
47912;SDS011;33676;51.006;17.180;2022-10-16T14:20:01;6.00;;;5.40;;
47912;SDS011;33676;51.006;17.180;2022-10-16T14:22:36;5.40;;;5.00;;
47912;SDS011;33676;51.006;17.180;2022-10-16T14:25:24;6.20;;;5.80;;
47912;SDS011;33676;51.006;17.180;2022-10-16T14:27:58;5.40;;;5.00;;
47912;SDS011;33676;51.006;17.180;2022-10-16T14:30:33;6.50;;;5.90;;
47912;SDS011;33676;51.006;17.180;2022-10-16T14:33:05;6.60;;;6.20;;
47912;SDS011;33676;51.006;17.180;2022-10-16T14:35:59;6.10;;;5.70;;
47912;SDS011;33676;51.006;17.180;2022-10-16T14:38:30;6.70;;;6.20;;
47912;SDS011;33676;51.006;17.180;2022-10-16T14:40:59;7.60;;;5.90;;
47912;SDS011;33676;51.006;17.180;2022-10-16T14:46:14;6.80;;;6.20;;
47912;SDS011;33676;51.006;17.180;2022-10-16T14:48:46;5.60;;;5.30;;
47912;SDS011;33676;51.006;17.180;2022-10-16T14:51:18;7.80;;;7.20;;
47912;SDS011;33676;51.006;17.180;2022-10-16T14:53:47;7.40;;;6.80;;
47912;SDS011;33676;51.006;17.180;2022-10-16T14:56:22;9.00;;;6.80;;
47912;SDS011;33676;51.006;17.180;2022-10-16T14:58:52;6.90;;;6.40;;
47912;SDS011;33676;51.006;17.180;2022-10-16T15:01:21;7.50;;;6.80;;
47912;SDS011;33676;51.006;17.180;2022-10-16T15:03:50;8.10;;;7.50;;
47912;SDS011;33676;51.006;17.180;2022-10-16T15:06:20;7.10;;;6.50;;
47912;SDS011;33676;51.006;17.180;2022-10-16T15:08:49;8.70;;;7.90;;
47912;SDS011;33676;51.006;17.180;2022-10-16T15:11:18;9.00;;;8.20;;
47912;SDS011;33676;51.006;17.180;2022-10-16T15:13:47;7.60;;;7.10;;
47912;SDS011;33676;51.006;17.180;2022-10-16T15:16:16;8.60;;;7.90;;
47912;SDS011;33676;51.006;17.180;2022-10-16T15:18:45;9.70;;;8.90;;
47912;SDS011;33676;51.006;17.180;2022-10-16T15:23:55;9.20;;;8.40;;
47912;SDS011;33676;51.006;17.180;2022-10-16T15:26:26;9.60;;;8.70;;
47912;SDS011;33676;51.006;17.180;2022-10-16T15:28:55;10.40;;;9.60;;
47912;SDS011;33676;51.006;17.180;2022-10-16T15:31:24;9.50;;;8.80;;
47912;SDS011;33676;51.006;17.180;2022-10-16T15:33:53;9.70;;;8.70;;
47912;SDS011;33676;51.006;17.180;2022-10-16T15:36:30;9.80;;;8.80;;
47912;SDS011;33676;51.006;17.180;2022-10-16T15:39:03;10.40;;;9.50;;
47912;SDS011;33676;51.006;17.180;2022-10-16T15:41:32;9.90;;;8.90;;
47912;SDS011;33676;51.006;17.180;2022-10-16T15:44:00;9.90;;;9.10;;
47912;SDS011;33676;51.006;17.180;2022-10-16T15:46:28;9.30;;;8.50;;
47912;SDS011;33676;51.006;17.180;2022-10-16T15:48:58;9.40;;;8.50;;
47912;SDS011;33676;51.006;17.180;2022-10-16T15:51:27;9.10;;;8.40;;
47912;SDS011;33676;51.006;17.180;2022-10-16T15:53:57;11.20;;;10.20;;
47912;SDS011;33676;51.006;17.180;2022-10-16T15:56:25;16.20;;;13.60;;
47912;SDS011;33676;51.006;17.180;2022-10-16T15:58:54;12.40;;;11.20;;
47912;SDS011;33676;51.006;17.180;2022-10-16T16:01:23;11.70;;;10.50;;
47912;SDS011;33676;51.006;17.180;2022-10-16T16:03:55;10.00;;;8.60;;
47912;SDS011;33676;51.006;17.180;2022-10-16T16:06:23;10.30;;;9.10;;
47912;SDS011;33676;51.006;17.180;2022-10-16T16:08:51;13.80;;;10.00;;
47912;SDS011;33676;51.006;17.180;2022-10-16T16:11:20;12.30;;;9.50;;
47912;SDS011;33676;51.006;17.180;2022-10-16T16:13:48;13.20;;;9.30;;
47912;SDS011;33676;51.006;17.180;2022-10-16T16:16:17;10.90;;;9.50;;
47912;SDS011;33676;51.006;17.180;2022-10-16T16:18:47;13.50;;;10.20;;
47912;SDS011;33676;51.006;17.180;2022-10-16T16:21:20;12.20;;;10.00;;
47912;SDS011;33676;51.006;17.180;2022-10-16T16:23:51;10.30;;;9.30;;
47912;SDS011;33676;51.006;17.180;2022-10-16T16:26:29;20.60;;;18.40;;
47912;SDS011;33676;51.006;17.180;2022-10-16T16:29:04;14.10;;;12.80;;
47912;SDS011;33676;51.006;17.180;2022-10-16T16:31:32;10.70;;;9.80;;
47912;SDS011;33676;51.006;17.180;2022-10-16T16:34:02;12.10;;;10.70;;
47912;SDS011;33676;51.006;17.180;2022-10-16T16:36:31;12.60;;;11.50;;
47912;SDS011;33676;51.006;17.180;2022-10-16T16:39:02;12.80;;;10.50;;
47912;SDS011;33676;51.006;17.180;2022-10-16T16:41:31;14.20;;;11.40;;
47912;SDS011;33676;51.006;17.180;2022-10-16T16:44:04;12.50;;;11.10;;
47912;SDS011;33676;51.006;17.180;2022-10-16T16:46:35;11.80;;;10.40;;
47912;SDS011;33676;51.006;17.180;2022-10-16T16:49:03;11.90;;;10.70;;